createdAt,value
2018-06-29T00:00:38.838Z,90.90
2018-06-29T00:03:07.193Z,90.80
2018-06-29T00:05:35.575Z,90.90
2018-06-29T00:08:03.923Z,91.20
2018-06-29T00:10:32.293Z,91.00
2018-06-29T00:13:00.660Z,90.60
2018-06-29T00:15:29.014Z,90.60
2018-06-29T00:17:57.389Z,90.70
2018-06-29T00:20:25.764Z,91.00
2018-06-29T00:22:54.234Z,91.60
2018-06-29T00:25:22.585Z,91.60
2018-06-29T00:27:51.002Z,91.80
2018-06-29T00:30:19.325Z,91.80
2018-06-29T00:32:47.684Z,91.80
2018-06-29T00:35:16.021Z,91.70
2018-06-29T00:37:44.404Z,92.20
2018-06-29T00:40:12.735Z,92.20
2018-06-29T00:42:41.106Z,92.00
2018-06-29T00:45:09.508Z,92.00
2018-06-29T00:47:37.912Z,92.20
2018-06-29T00:50:06.293Z,92.50
2018-06-29T00:55:02.784Z,92.50
2018-06-29T00:57:31.145Z,92.60
2018-06-29T00:59:59.490Z,92.80
2018-06-29T01:02:27.821Z,92.70
2018-06-29T01:04:56.182Z,92.30
2018-06-29T01:07:24.510Z,92.50
2018-06-29T01:09:52.829Z,92.50
2018-06-29T01:12:21.132Z,92.70
2018-06-29T01:14:49.484Z,92.70
2018-06-29T01:17:17.818Z,92.50
2018-06-29T01:19:46.214Z,92.40
2018-06-29T01:22:14.568Z,92.40
2018-06-29T01:24:43.086Z,92.50
2018-06-29T01:27:11.417Z,92.50
2018-06-29T01:29:39.749Z,92.80
2018-06-29T01:32:08.116Z,92.90
2018-06-29T01:34:36.557Z,92.70
2018-06-29T01:37:04.891Z,93.40
2018-06-29T01:39:33.200Z,92.50
2018-06-29T01:42:01.534Z,92.70
2018-06-29T01:44:29.855Z,92.60
2018-06-29T01:46:58.197Z,92.50
2018-06-29T01:49:26.541Z,92.50
2018-06-29T01:51:55.212Z,92.50
2018-06-29T01:56:51.656Z,92.40
2018-06-29T01:59:19.984Z,92.30
2018-06-29T02:01:48.453Z,92.30
2018-06-29T02:04:16.813Z,92.20
2018-06-29T02:06:45.146Z,92.10
2018-06-29T02:09:13.522Z,92.20
2018-06-29T02:11:41.895Z,92.00
2018-06-29T02:14:10.205Z,92.10
2018-06-29T02:16:38.556Z,91.90
2018-06-29T02:19:06.891Z,92.10
2018-06-29T02:24:03.328Z,92.20
2018-06-29T02:26:31.669Z,91.80
2018-06-29T02:28:59.997Z,92.00
2018-06-29T02:31:28.310Z,91.60
2018-06-29T02:33:56.636Z,91.50
2018-06-29T02:36:25.012Z,91.60
2018-06-29T02:38:53.337Z,91.40
2018-06-29T02:41:21.669Z,91.30
2018-06-29T02:43:50.062Z,91.30
2018-06-29T02:46:18.365Z,91.20
2018-06-29T02:48:46.773Z,91.30
2018-06-29T02:51:15.176Z,91.10
2018-06-29T02:53:43.617Z,91.20
2018-06-29T02:56:11.977Z,91.30
2018-06-29T02:58:40.331Z,91.20
2018-06-29T03:01:08.763Z,91.10
2018-06-29T03:03:37.094Z,91.40
2018-06-29T03:06:05.564Z,91.30
2018-06-29T03:08:33.902Z,91.40
2018-06-29T03:11:02.236Z,91.50
2018-06-29T03:13:30.638Z,91.60
2018-06-29T03:15:59.000Z,91.50
2018-06-29T03:18:27.327Z,91.60
2018-06-29T03:20:55.669Z,91.60
2018-06-29T03:23:24.005Z,91.70
2018-06-29T03:25:52.375Z,91.70
2018-06-29T03:28:20.687Z,91.40
2018-06-29T03:30:48.990Z,91.80
2018-06-29T03:33:17.357Z,91.80
2018-06-29T03:35:45.713Z,91.90
2018-06-29T03:38:14.047Z,92.00
2018-06-29T03:40:42.458Z,92.10
2018-06-29T03:43:10.726Z,92.10
2018-06-29T03:45:39.103Z,92.20
2018-06-29T03:48:07.389Z,92.30
2018-06-29T03:50:35.718Z,92.30
2018-06-29T03:53:04.050Z,92.60
2018-06-29T03:55:32.430Z,92.70
2018-06-29T03:58:00.804Z,92.90
2018-06-29T04:00:29.152Z,93.10
2018-06-29T04:02:57.490Z,93.20
2018-06-29T04:05:25.805Z,93.30
2018-06-29T04:07:54.085Z,93.50
2018-06-29T04:10:22.401Z,93.20
2018-06-29T04:12:50.760Z,92.60
2018-06-29T04:15:19.091Z,92.50
2018-06-29T04:17:47.439Z,93.10
2018-06-29T04:20:15.837Z,92.60
2018-06-29T04:22:44.198Z,93.20
2018-06-29T04:25:12.549Z,93.60
2018-06-29T04:27:40.896Z,93.70
2018-06-29T04:30:09.280Z,93.40
2018-06-29T04:32:37.576Z,93.30
2018-06-29T04:35:05.942Z,93.40
2018-06-29T04:37:34.334Z,93.30
2018-06-29T04:40:02.646Z,93.10
2018-06-29T04:42:30.958Z,93.00
2018-06-29T04:44:59.262Z,92.70
2018-06-29T04:47:27.591Z,92.80
2018-06-29T04:49:55.950Z,93.10
2018-06-29T04:52:24.291Z,93.10
2018-06-29T04:54:52.824Z,93.20
2018-06-29T04:57:21.169Z,93.40
2018-06-29T04:59:51.104Z,93.50
2018-06-29T05:02:19.466Z,93.00
2018-06-29T05:04:47.854Z,93.70
2018-06-29T05:07:16.158Z,93.70
2018-06-29T05:09:44.486Z,93.60
2018-06-29T05:12:12.856Z,93.30
2018-06-29T05:14:41.211Z,93.30
2018-06-29T05:17:09.571Z,93.40
2018-06-29T05:19:37.979Z,93.70
2018-06-29T05:22:06.417Z,93.50
2018-06-29T05:24:34.758Z,93.90
2018-06-29T05:27:03.136Z,94.20
2018-06-29T05:29:31.489Z,94.00
2018-06-29T05:31:59.878Z,94.00
2018-06-29T05:34:29.254Z,93.90
2018-06-29T05:36:57.701Z,94.30
2018-06-29T05:39:26.049Z,94.00
2018-06-29T05:41:54.425Z,93.90
2018-06-29T05:44:22.747Z,93.90
2018-06-29T05:46:51.263Z,93.90
2018-06-29T05:49:19.652Z,94.00
2018-06-29T05:51:48.044Z,93.90
2018-06-29T05:54:16.421Z,93.60
2018-06-29T05:56:44.750Z,93.70
2018-06-29T05:59:13.140Z,93.70
2018-06-29T06:01:41.589Z,93.80
2018-06-29T06:04:09.911Z,94.10
2018-06-29T06:06:38.253Z,94.30
2018-06-29T06:09:08.501Z,94.60
2018-06-29T06:11:36.836Z,94.70
2018-06-29T06:14:05.616Z,94.60
2018-06-29T06:16:34.009Z,94.70
2018-06-29T06:19:13.858Z,94.40
2018-06-29T06:21:42.238Z,94.60
2018-06-29T06:24:10.714Z,94.70
2018-06-29T06:26:39.077Z,94.70
2018-06-29T06:29:07.458Z,94.80
2018-06-29T06:31:35.846Z,94.70
2018-06-29T06:34:04.217Z,94.50
2018-06-29T06:36:32.917Z,93.90
2018-06-29T06:39:01.262Z,94.00
2018-06-29T06:41:29.773Z,93.50
2018-06-29T06:43:58.188Z,92.00
2018-06-29T06:46:26.561Z,92.10
2018-06-29T06:48:54.928Z,91.40
2018-06-29T06:51:23.861Z,90.70
2018-06-29T06:53:52.225Z,90.10
2018-06-29T06:56:20.602Z,88.90
2018-06-29T06:58:48.934Z,86.90
2018-06-29T07:01:17.288Z,87.00
2018-06-29T07:03:45.626Z,83.60
2018-06-29T07:06:13.958Z,83.20
2018-06-29T07:08:42.318Z,83.40
2018-06-29T07:11:10.702Z,81.60
2018-06-29T07:13:39.065Z,80.70
2018-06-29T07:16:07.564Z,80.90
2018-06-29T07:18:35.940Z,79.00
2018-06-29T07:21:04.464Z,79.50
2018-06-29T07:23:32.850Z,78.80
2018-06-29T07:26:01.310Z,79.60
2018-06-29T07:28:29.632Z,77.50
2018-06-29T07:30:57.997Z,78.00
2018-06-29T07:33:26.440Z,76.10
2018-06-29T07:35:54.877Z,78.10
2018-06-29T07:38:23.283Z,76.10
2018-06-29T07:40:51.698Z,73.70
2018-06-29T07:43:20.218Z,76.90
2018-06-29T07:45:48.921Z,75.80
2018-06-29T07:48:17.442Z,76.80
2018-06-29T07:50:45.944Z,75.60
2018-06-29T07:53:14.306Z,76.50
2018-06-29T07:55:42.735Z,73.40
2018-06-29T07:58:11.155Z,72.30
2018-06-29T08:00:39.638Z,72.20
2018-06-29T08:03:08.042Z,73.50
2018-06-29T08:05:37.259Z,73.90
2018-06-29T08:08:05.680Z,72.40
2018-06-29T08:10:34.184Z,72.50
2018-06-29T08:13:02.574Z,71.00
2018-06-29T08:15:31.222Z,72.40
2018-06-29T08:17:59.629Z,73.50
2018-06-29T08:20:28.008Z,71.30
2018-06-29T08:22:56.365Z,72.20
2018-06-29T08:25:24.889Z,72.60
2018-06-29T08:27:53.282Z,73.20
2018-06-29T08:30:21.707Z,71.80
2018-06-29T08:32:50.096Z,72.10
2018-06-29T08:35:18.514Z,73.30
2018-06-29T08:37:46.948Z,72.80
2018-06-29T08:40:15.299Z,73.10
2018-06-29T08:42:44.522Z,74.20
2018-06-29T08:45:12.945Z,72.90
2018-06-29T08:47:41.946Z,72.20
2018-06-29T08:50:10.396Z,73.10
2018-06-29T08:52:38.788Z,72.30
2018-06-29T08:55:07.286Z,73.20
2018-06-29T09:00:06.018Z,71.40
2018-06-29T09:02:34.599Z,73.00
2018-06-29T09:05:03.094Z,70.60
2018-06-29T09:07:33.520Z,70.70
2018-06-29T09:10:02.024Z,69.90
2018-06-29T09:12:30.963Z,69.10
2018-06-29T09:14:59.500Z,68.20
2018-06-29T09:17:27.953Z,67.40
2018-06-29T09:22:24.551Z,67.10
2018-06-29T09:24:53.077Z,68.20
2018-06-29T09:27:21.441Z,68.40
2018-06-29T09:29:49.854Z,69.20
2018-06-29T09:32:18.331Z,67.90
2018-06-29T09:37:14.875Z,67.10
2018-06-29T09:39:43.930Z,68.60
2018-06-29T09:42:12.347Z,70.20
2018-06-29T09:44:40.800Z,67.40
2018-06-29T09:47:10.358Z,66.10
2018-06-29T09:49:39.628Z,62.50
2018-06-29T09:52:08.030Z,64.20
2018-06-29T09:57:05.634Z,65.40
2018-06-29T09:59:34.700Z,68.30
2018-06-29T10:02:05.450Z,64.90
2018-06-29T10:04:37.835Z,64.90
2018-06-29T10:07:06.533Z,63.80
2018-06-29T10:09:35.113Z,62.10
2018-06-29T10:12:04.162Z,65.30
2018-06-29T10:17:00.922Z,67.00
2018-06-29T10:19:30.298Z,67.10
2018-06-29T10:21:58.587Z,69.10
2018-06-29T10:24:27.156Z,67.00
2018-06-29T10:26:55.517Z,67.20
2018-06-29T10:29:24.671Z,65.90
2018-06-29T10:31:53.678Z,66.20
2018-06-29T10:34:22.150Z,65.00
2018-06-29T10:39:18.686Z,64.10
2018-06-29T10:44:15.279Z,65.60
2018-06-29T10:46:43.698Z,67.30
2018-06-29T10:49:12.125Z,69.60
2018-06-29T10:51:41.123Z,65.20
2018-06-29T10:54:09.573Z,64.40
2018-06-29T10:56:38.037Z,65.50
2018-06-29T10:59:06.541Z,67.30
2018-06-29T11:01:35.257Z,63.80
2018-06-29T11:04:05.134Z,67.40
2018-06-29T11:06:33.815Z,67.80
2018-06-29T11:09:02.262Z,64.80
2018-06-29T11:11:30.642Z,68.10
2018-06-29T11:13:59.015Z,67.20
2018-06-29T11:16:27.427Z,66.60
2018-06-29T11:18:55.845Z,63.20
2018-06-29T11:21:24.209Z,62.40
2018-06-29T11:23:52.675Z,65.20
2018-06-29T11:26:21.106Z,62.80
2018-06-29T11:28:49.556Z,65.00
2018-06-29T11:31:19.776Z,63.20
2018-06-29T11:33:48.755Z,64.30
2018-06-29T11:36:18.389Z,60.60
2018-06-29T11:38:46.975Z,59.10
2018-06-29T11:41:16.064Z,63.90
2018-06-29T11:43:44.500Z,66.40
2018-06-29T11:46:12.921Z,61.80
2018-06-29T11:48:42.692Z,61.60
2018-06-29T11:51:11.077Z,63.70
2018-06-29T11:53:40.478Z,62.60
2018-06-29T11:56:09.769Z,62.60
2018-06-29T11:58:38.115Z,62.70
2018-06-29T12:01:06.914Z,63.90
2018-06-29T12:03:36.007Z,62.30
2018-06-29T12:06:04.406Z,65.00
2018-06-29T12:08:32.869Z,61.40
2018-06-29T12:11:02.010Z,61.70
2018-06-29T12:13:30.380Z,60.50
2018-06-29T12:15:58.789Z,60.90
2018-06-29T12:18:27.274Z,62.00
2018-06-29T12:20:56.085Z,57.70
2018-06-29T12:23:24.135Z,59.30
2018-06-29T12:25:52.558Z,59.00
2018-06-29T12:28:20.979Z,56.60
2018-06-29T12:30:49.387Z,55.80
2018-06-29T12:33:17.819Z,56.60
2018-06-29T12:35:47.322Z,61.00
2018-06-29T12:38:15.948Z,53.70
2018-06-29T12:40:44.513Z,54.30
2018-06-29T12:43:13.242Z,55.60
2018-06-29T12:45:41.689Z,55.50
2018-06-29T12:48:10.078Z,58.50
2018-06-29T12:50:38.455Z,56.30
2018-06-29T12:53:07.209Z,51.80
2018-06-29T12:55:36.818Z,56.40
2018-06-29T12:58:05.290Z,55.20
2018-06-29T13:00:34.319Z,55.90
2018-06-29T13:03:02.677Z,53.70
2018-06-29T13:05:32.140Z,53.30
2018-06-29T13:08:00.513Z,52.40
2018-06-29T13:10:28.904Z,51.80
2018-06-29T13:13:02.976Z,55.50
2018-06-29T13:15:31.485Z,55.40
2018-06-29T13:17:59.966Z,54.90
2018-06-29T13:20:28.887Z,54.10
2018-06-29T13:22:57.367Z,54.90
2018-06-29T13:25:25.893Z,54.80
2018-06-29T13:27:55.480Z,53.80
2018-06-29T13:30:23.933Z,54.40
2018-06-29T13:32:52.384Z,54.00
2018-06-29T13:35:21.030Z,52.00
2018-06-29T13:37:49.461Z,51.30
2018-06-29T13:40:18.668Z,55.40
2018-06-29T13:42:49.106Z,52.00
2018-06-29T13:45:17.560Z,52.00
2018-06-29T13:47:45.963Z,51.90
2018-06-29T13:50:14.533Z,51.70
2018-06-29T13:52:42.894Z,51.40
2018-06-29T13:55:11.481Z,52.60
2018-06-29T13:57:40.850Z,51.80
2018-06-29T14:00:10.452Z,49.30
2018-06-29T14:02:39.632Z,50.90
2018-06-29T14:05:08.156Z,50.80
2018-06-29T14:07:36.543Z,48.70
2018-06-29T14:10:05.470Z,49.20
2018-06-29T14:12:33.968Z,50.30
2018-06-29T14:15:02.338Z,51.30
2018-06-29T14:19:58.853Z,52.00
2018-06-29T14:22:27.324Z,49.40
2018-06-29T14:24:56.369Z,49.80
2018-06-29T14:27:24.727Z,49.00
2018-06-29T14:29:53.858Z,50.70
2018-06-29T14:32:23.829Z,51.70
2018-06-29T14:34:52.224Z,50.40
2018-06-29T14:39:49.931Z,50.00
2018-06-29T14:42:18.333Z,50.70
2018-06-29T14:44:47.160Z,51.30
2018-06-29T14:47:15.564Z,51.30
2018-06-29T14:49:44.468Z,51.80
2018-06-29T14:52:12.813Z,50.80
2018-06-29T14:54:41.186Z,51.50
2018-06-29T14:57:10.122Z,52.60
2018-06-29T14:59:38.582Z,51.60
2018-06-29T15:02:06.965Z,54.30
2018-06-29T15:04:35.358Z,50.90
2018-06-29T15:07:03.740Z,50.50
2018-06-29T15:09:32.211Z,49.00
2018-06-29T15:12:00.561Z,48.10
2018-06-29T15:14:29.015Z,48.10
2018-06-29T15:16:57.440Z,47.70
2018-06-29T15:19:25.870Z,46.90
2018-06-29T15:21:54.421Z,47.60
2018-06-29T15:24:22.861Z,48.50
2018-06-29T15:26:51.301Z,49.00
2018-06-29T15:29:20.141Z,49.00
2018-06-29T15:31:48.624Z,48.90
2018-06-29T15:34:18.565Z,47.90
2018-06-29T15:36:46.910Z,47.00
2018-06-29T15:39:15.294Z,48.00
2018-06-29T15:41:43.645Z,48.50
2018-06-29T15:44:12.172Z,50.30
2018-06-29T15:46:40.609Z,50.60
2018-06-29T15:49:09.849Z,50.80
2018-06-29T15:51:38.239Z,50.40
2018-06-29T15:54:06.609Z,50.30
2018-06-29T15:56:35.165Z,49.60
2018-06-29T15:59:03.529Z,49.70
2018-06-29T16:01:31.886Z,49.90
2018-06-29T16:04:00.825Z,46.70
2018-06-29T16:06:29.318Z,47.70
2018-06-29T16:08:57.704Z,49.10
2018-06-29T16:11:26.942Z,51.00
2018-06-29T16:13:55.277Z,50.00
2018-06-29T16:16:23.613Z,51.20
2018-06-29T16:18:51.965Z,49.90
2018-06-29T16:21:20.339Z,48.80
2018-06-29T16:23:48.690Z,48.30
2018-06-29T16:26:17.828Z,49.30
2018-06-29T16:28:46.230Z,48.70
2018-06-29T16:31:17.693Z,50.60
2018-06-29T16:33:46.104Z,48.60
2018-06-29T16:36:14.577Z,47.60
2018-06-29T16:38:42.972Z,49.10
2018-06-29T16:41:11.314Z,49.30
2018-06-29T16:43:39.675Z,51.30
2018-06-29T16:46:08.166Z,51.80
2018-06-29T16:48:36.699Z,52.00
2018-06-29T16:51:05.073Z,52.20
2018-06-29T16:53:34.214Z,52.20
2018-06-29T16:56:02.581Z,50.50
2018-06-29T16:58:31.695Z,50.50
2018-06-29T17:01:00.056Z,52.80
2018-06-29T17:03:28.456Z,54.10
2018-06-29T17:05:56.921Z,56.00
2018-06-29T17:08:25.264Z,55.50
2018-06-29T17:10:53.631Z,57.10
2018-06-29T17:13:22.015Z,57.10
2018-06-29T17:15:50.413Z,55.10
2018-06-29T17:18:18.840Z,57.10
2018-06-29T17:20:47.189Z,56.80
2018-06-29T17:23:15.581Z,59.60
2018-06-29T17:25:44.006Z,59.20
2018-06-29T17:28:12.434Z,59.50
2018-06-29T17:30:40.916Z,60.80
2018-06-29T17:33:09.303Z,62.50
2018-06-29T17:35:37.759Z,62.40
2018-06-29T17:38:06.179Z,64.40
2018-06-29T17:40:34.562Z,63.50
2018-06-29T17:43:02.949Z,63.60
2018-06-29T17:45:31.354Z,63.40
2018-06-29T17:47:59.728Z,62.10
2018-06-29T17:50:28.119Z,63.80
2018-06-29T17:52:56.476Z,64.40
2018-06-29T17:55:25.673Z,63.20
2018-06-29T17:57:54.745Z,63.10
2018-06-29T18:00:23.160Z,64.00
2018-06-29T18:02:51.515Z,65.20
2018-06-29T18:05:20.860Z,65.40
2018-06-29T18:07:49.174Z,65.50
2018-06-29T18:10:17.555Z,64.70
2018-06-29T18:12:46.022Z,65.00
2018-06-29T18:15:14.335Z,65.60
2018-06-29T18:17:42.752Z,69.30
2018-06-29T18:20:11.738Z,69.00
2018-06-29T18:22:40.093Z,69.70
2018-06-29T18:25:08.458Z,69.60
2018-06-29T18:27:36.823Z,70.20
2018-06-29T18:30:05.555Z,70.50
2018-06-29T18:32:33.897Z,70.20
2018-06-29T18:35:02.244Z,71.90
2018-06-29T18:37:30.595Z,70.90
2018-06-29T18:39:58.929Z,72.60
2018-06-29T18:42:27.313Z,74.10
2018-06-29T18:47:24.681Z,75.70
2018-06-29T18:49:53.864Z,76.30
2018-06-29T18:52:22.246Z,75.30
2018-06-29T18:54:50.671Z,75.40
2018-06-29T18:57:19.044Z,75.20
2018-06-29T18:59:47.380Z,73.70
2018-06-29T19:02:15.881Z,74.30
2018-06-29T19:04:45.026Z,75.00
2018-06-29T19:07:13.941Z,74.50
2018-06-29T19:09:42.304Z,75.20
2018-06-29T19:12:10.792Z,74.50
2018-06-29T19:14:39.285Z,74.00
2018-06-29T19:17:07.657Z,74.30
2018-06-29T19:19:36.700Z,75.00
2018-06-29T19:22:05.197Z,75.00
2018-06-29T19:24:33.674Z,75.60
2018-06-29T19:27:02.104Z,74.50
2018-06-29T19:29:30.542Z,75.00
2018-06-29T19:31:59.691Z,75.50
2018-06-29T19:34:28.057Z,76.20
2018-06-29T19:36:56.469Z,75.90
2018-06-29T19:39:24.965Z,75.90
2018-06-29T19:41:53.556Z,75.60
2018-06-29T19:44:22.083Z,76.40
2018-06-29T19:46:50.429Z,75.70
2018-06-29T19:49:19.020Z,76.10
2018-06-29T19:51:47.423Z,77.20
2018-06-29T19:54:15.865Z,76.50
2018-06-29T19:56:44.330Z,76.70
2018-06-29T19:59:12.725Z,76.00
2018-06-29T20:01:41.188Z,75.70
2018-06-29T20:04:09.594Z,76.40
2018-06-29T20:06:38.300Z,76.90
2018-06-29T20:09:09.040Z,76.30
2018-06-29T20:11:37.569Z,75.30
2018-06-29T20:14:06.073Z,75.10
2018-06-29T20:16:34.469Z,76.90
2018-06-29T20:19:03.185Z,75.10
2018-06-29T20:21:31.552Z,78.40
2018-06-29T20:23:59.941Z,76.30
2018-06-29T20:26:28.328Z,77.10
2018-06-29T20:28:56.723Z,76.70
2018-06-29T20:31:25.202Z,76.70
2018-06-29T20:33:53.586Z,77.60
2018-06-29T20:36:21.981Z,77.20
2018-06-29T20:38:50.496Z,77.40
2018-06-29T20:41:18.766Z,77.80
2018-06-29T20:43:47.201Z,77.70
2018-06-29T20:46:15.590Z,77.80
2018-06-29T20:48:44.046Z,77.40
2018-06-29T20:51:12.429Z,78.50
2018-06-29T20:53:40.810Z,78.30
2018-06-29T20:56:09.317Z,78.00
2018-06-29T20:58:37.665Z,77.30
2018-06-29T21:01:06.106Z,77.90
2018-06-29T21:03:34.507Z,77.10
2018-06-29T21:06:02.897Z,77.30
2018-06-29T21:08:31.975Z,77.50
2018-06-29T21:11:00.371Z,77.10
2018-06-29T21:13:28.717Z,77.90
2018-06-29T21:15:57.121Z,78.10
2018-06-29T21:18:25.542Z,77.80
2018-06-29T21:20:53.950Z,78.30
2018-06-29T21:23:22.890Z,78.50
2018-06-29T21:25:51.258Z,78.70
2018-06-29T21:28:19.598Z,78.70
2018-06-29T21:30:48.008Z,78.80
2018-06-29T21:33:16.397Z,78.70
2018-06-29T21:35:44.770Z,78.90
2018-06-29T21:38:13.188Z,79.10
2018-06-29T21:40:41.597Z,79.10
2018-06-29T21:43:09.974Z,79.20
2018-06-29T21:45:38.345Z,80.40
2018-06-29T21:48:07.189Z,80.20
2018-06-29T21:50:35.574Z,81.00
2018-06-29T21:53:03.962Z,81.20
2018-06-29T21:55:32.311Z,81.50
2018-06-29T22:00:34.044Z,84.30
2018-06-29T22:03:09.521Z,84.40
2018-06-29T22:05:38.909Z,85.70
2018-06-29T22:08:08.220Z,86.10
2018-06-29T22:10:36.766Z,85.70
2018-06-29T22:13:05.271Z,86.10
2018-06-29T22:15:33.634Z,85.60
2018-06-29T22:18:01.978Z,86.40
2018-06-29T22:20:30.336Z,85.80
2018-06-29T22:22:58.716Z,87.20
2018-06-29T22:25:27.074Z,88.80
2018-06-29T22:27:55.436Z,90.00
2018-06-29T22:30:23.768Z,90.00
2018-06-29T22:32:52.127Z,90.60
2018-06-29T22:35:21.622Z,90.40
2018-06-29T22:37:50.033Z,90.70
2018-06-29T22:40:18.460Z,90.60
2018-06-29T22:42:46.830Z,90.40
2018-06-29T22:45:15.194Z,90.60
2018-06-29T22:47:43.561Z,90.90
2018-06-29T22:50:11.998Z,91.10
2018-06-29T22:52:40.411Z,91.60
2018-06-29T22:55:08.755Z,91.70
2018-06-29T22:57:37.125Z,91.80
2018-06-29T23:00:09.298Z,91.70
2018-06-29T23:02:37.652Z,91.80
2018-06-29T23:05:06.054Z,91.80
2018-06-29T23:07:34.625Z,91.90
2018-06-29T23:10:02.990Z,92.00
2018-06-29T23:12:31.360Z,92.30
2018-06-29T23:14:59.726Z,92.10
2018-06-29T23:17:28.096Z,92.20
2018-06-29T23:20:00.141Z,92.50
2018-06-29T23:22:28.613Z,92.80
2018-06-29T23:24:57.134Z,93.10
2018-06-29T23:27:25.491Z,93.40
2018-06-29T23:29:59.225Z,93.60
2018-06-29T23:32:27.579Z,93.80
2018-06-29T23:34:55.947Z,94.20
2018-06-29T23:37:24.278Z,94.20
2018-06-29T23:39:52.626Z,94.70
2018-06-29T23:42:20.935Z,94.70
2018-06-29T23:44:49.231Z,95.00
2018-06-29T23:49:45.617Z,94.60
2018-06-29T23:52:13.974Z,94.50
2018-06-29T23:54:42.306Z,95.00
2018-06-29T23:57:10.631Z,94.70
2018-06-29T23:59:38.941Z,95.10
